Huvudsida
METAR-TAF:

METAR-TAF

Flygplatser :

Staunings flygplats

Ringkøbing-Skjern, Danmark

latitud: 56-00N, longitud: 008-21E, höjd: 5 m

Aktuellt väderrapport

Denna rapport gjordes för 13 timmar och 18 minuter sedan, klockan 13:50 UTC
Vind 15 kt från sydväst
Temperatur 20°C
Fuktighet 83%
Tryck 1002 hPa
Sikt 10 km eller mer
Få moln på en höjd av 1800 ft, Högtornande cumulus.

METAR: EKVJ 171350Z 22015KT 9999 FEW018TCU 20/17 Q1002

Tid: 05:08 (03:08 UTC)

Väderprognos

Denna rapport gjordes för 18 timmar och 6 minuter sedan, klockan 09:02 UTC
Prognos gäller från 17 kl. 09 UTC till 17 kl. 15 UTC
Vind 18 kt från syd/sydväst
Sikt 10 km eller mer
Brutna moln på en höjd av 800 ft
Blir
från 17 kl. 09 UTC till 17 kl. 11 UTC
Spridda moln på en höjd av 1500 ft

TAF: EKVJ 170902Z 1709/1715 20018KT 9999 BKN008 BECMG 1709/1711 SCT015

Aktuella väderrapporter och prognoser från 4000 flygplatser (METAR- och TAF-rapporter).

De tillgängliga stationerna syns som gula och röda prickar på kartan.

För musen över prickarna för att se namnen på stationerna.

Klicka sedan för att få väderrapporter och prognoser.

För att ändra kartan: Klicka på de gröna knapparna med ett svart kors på för att zooma in; den gröna knappen med ett streck på för att zooma ut; eller på de gröna pilarna för angränsande kartor.


METAR-TAF: